Time;durP1;ratioP1;P1;durP2;ratioP2;P2;SDS_P1;SDS_P2;PMS_P1;PMS_P2;Temp;Humidity;BMP_temperature;BMP_pressure;BME280_temperature;BME280_humidity;BME280_pressure;Samples;Min_cycle;Max_cycle;Signal;HPM_P1;HPM_P2
2023/01/10 00:00:20;;;;;;;17.83;3.38;;;;;;;;;;5003403;28;20089;-74
2023/01/10 00:02:45;;;;;;;21.58;3.17;;;;;;;;;;5022421;28;20038;-74
2023/01/10 00:05:11;;;;;;;23.25;4.57;;;;;;;;;;5014635;28;20092;-73
2023/01/10 00:07:36;;;;;;;34.80;4.70;;;;;;;;;;5025727;28;20453;-74
2023/01/10 00:10:02;;;;;;;43.10;8.85;;;;;;;;;;5019536;28;20030;-74
2023/01/10 00:15:11;;;;;;;32.85;7.10;;;;;;;;;;5021760;28;20103;-74
2023/01/10 00:17:36;;;;;;;46.72;11.80;;;;;;;;;;5021448;28;20428;-74
2023/01/10 00:20:02;;;;;;;32.85;6.28;;;;;;;;;;5015146;28;20041;-75
2023/01/10 00:22:27;;;;;;;17.85;3.95;;;;;;;;;;5017601;28;20420;-73
2023/01/10 00:24:52;;;;;;;32.85;3.78;;;;;;;;;;5020120;28;20049;-73
2023/01/10 00:27:21;;;;;;;25.42;4.63;;;;;;;;;;5017350;28;20041;-73
2023/01/10 00:29:47;;;;;;;27.05;3.67;;;;;;;;;;5015014;28;20033;-72
2023/01/10 00:32:12;;;;;;;36.88;4.75;;;;;;;;;;5025256;28;20416;-73
2023/01/10 00:34:38;;;;;;;32.88;6.22;;;;;;;;;;5016911;28;20093;-73
2023/01/10 00:37:03;;;;;;;32.13;5.78;;;;;;;;;;5019050;28;20505;-74
2023/01/10 00:39:29;;;;;;;25.90;7.45;;;;;;;;;;5022853;28;20108;-73
2023/01/10 00:44:38;;;;;;;29.33;6.30;;;;;;;;;;5023643;28;20539;-74
2023/01/10 00:47:03;;;;;;;33.55;4.32;;;;;;;;;;5043446;28;20050;-74
2023/01/10 00:49:29;;;;;;;31.00;5.60;;;;;;;;;;5028243;28;20053;-73
2023/01/10 00:51:57;;;;;;;25.52;6.28;;;;;;;;;;5025687;28;20132;-74
2023/01/10 00:54:22;;;;;;;23.70;5.05;;;;;;;;;;5020806;28;20107;-73
2023/01/10 00:56:47;;;;;;;26.48;4.45;;;;;;;;;;5027839;28;20840;-73
2023/01/10 00:59:13;;;;;;;23.15;3.25;;;;;;;;;;5027379;28;20026;-73
2023/01/10 01:01:38;;;;;;;47.28;5.80;;;;;;;;;;5025944;28;20034;-73
2023/01/10 01:04:04;;;;;;;15.30;3.40;;;;;;;;;;5016792;28;20036;-74
2023/01/10 01:06:29;;;;;;;37.65;4.05;;;;;;;;;;5026816;28;20048;-73
2023/01/10 01:08:54;;;;;;;30.23;5.20;;;;;;;;;;5022722;28;20041;-73
2023/01/10 01:11:20;;;;;;;29.38;4.93;;;;;;;;;;5022300;28;20034;-73
2023/01/10 01:13:45;;;;;;;28.05;4.32;;;;;;;;;;5027754;28;20057;-73
2023/01/10 01:16:11;;;;;;;26.63;4.15;;;;;;;;;;5021079;28;20037;-72
2023/01/10 01:18:36;;;;;;;29.35;4.85;;;;;;;;;;5022521;28;20040;-73
2023/01/10 01:21:04;;;;;;;24.50;4.13;;;;;;;;;;5031294;28;20469;-73
2023/01/10 01:23:29;;;;;;;40.75;5.97;;;;;;;;;;5024788;28;20046;-73
2023/01/10 01:25:56;;;;;;;28.20;4.47;;;;;;;;;;5026353;28;20385;-73
2023/01/10 01:28:21;;;;;;;31.60;4.55;;;;;;;;;;5023978;28;20072;-73
2023/01/10 01:30:47;;;;;;;17.10;3.67;;;;;;;;;;5029983;28;20068;-73
2023/01/10 01:33:13;;;;;;;27.92;4.38;;;;;;;;;;5020246;28;20030;-73
2023/01/10 01:35:43;;;;;;;20.13;3.72;;;;;;;;;;5018215;28;20034;-74
2023/01/10 01:38:08;;;;;;;25.20;4.03;;;;;;;;;;5021268;28;20117;-73
2023/01/10 01:40:35;;;;;;;31.13;3.65;;;;;;;;;;5027018;28;20056;-73
2023/01/10 01:43:00;;;;;;;21.70;2.65;;;;;;;;;;5025344;28;20041;-73
2023/01/10 01:45:32;;;;;;;24.33;2.97;;;;;;;;;;5020188;28;20038;-73
2023/01/10 01:48:01;;;;;;;22.25;2.95;;;;;;;;;;5027445;28;20160;-74
2023/01/10 01:50:32;;;;;;;14.70;2.22;;;;;;;;;;5026325;28;20061;-73
2023/01/10 01:53:00;;;;;;;17.48;1.75;;;;;;;;;;5040993;28;20033;-74
2023/01/10 01:55:26;;;;;;;30.67;4.35;;;;;;;;;;5031028;28;20078;-73
2023/01/10 01:57:53;;;;;;;23.15;2.40;;;;;;;;;;5019729;28;20049;-73
2023/01/10 02:00:19;;;;;;;22.30;3.67;;;;;;;;;;5025399;28;20060;-73
2023/01/10 02:02:48;;;;;;;30.67;3.63;;;;;;;;;;5022773;28;20489;-73
2023/01/10 02:05:15;;;;;;;21.35;3.03;;;;;;;;;;5029928;28;20116;-72
2023/01/10 02:07:44;;;;;;;26.60;3.08;;;;;;;;;;5023085;28;20037;-74
2023/01/10 02:10:31;;;;;;;34.78;4.10;;;;;;;;;;5025803;28;20050;-73
2023/01/10 02:13:00;;;;;;;17.98;2.63;;;;;;;;;;5024088;28;20382;-73
2023/01/10 02:15:26;;;;;;;12.70;2.38;;;;;;;;;;5027194;28;20041;-73
2023/01/10 02:17:51;;;;;;;17.15;2.42;;;;;;;;;;5031080;28;20041;-73
2023/01/10 02:20:18;;;;;;;18.17;2.97;;;;;;;;;;5028191;28;20048;-73
2023/01/10 02:23:00;;;;;;;13.52;2.75;;;;;;;;;;5022731;28;20109;-73
2023/01/10 02:26:02;;;;;;;15.05;2.55;;;;;;;;;;5018608;28;20042;-73
2023/01/10 02:29:19;;;;;;;13.65;2.45;;;;;;;;;;5013753;28;20038;-73
2023/01/10 02:32:08;;;;;;;29.92;2.70;;;;;;;;;;5008562;28;20117;-73
2023/01/10 02:34:44;;;;;;;9.77;1.98;;;;;;;;;;5019485;28;20509;-73
2023/01/10 02:37:13;;;;;;;29.27;2.95;;;;;;;;;;5021187;28;20504;-75
2023/01/10 02:39:52;;;;;;;13.00;1.98;;;;;;;;;;5025430;28;20105;-73
2023/01/10 02:42:46;;;;;;;15.43;2.38;;;;;;;;;;5033206;28;20042;-73
2023/01/10 02:45:16;;;;;;;19.95;2.88;;;;;;;;;;5016761;28;20033;-73
2023/01/10 02:47:42;;;;;;;11.10;1.77;;;;;;;;;;5016876;28;20425;-73
2023/01/10 02:50:43;;;;;;;25.33;2.65;;;;;;;;;;5018149;28;20050;-74
2023/01/10 02:53:28;;;;;;;13.52;2.72;;;;;;;;;;4985940;28;20149;-73
2023/01/10 02:56:14;;;;;;;20.48;2.60;;;;;;;;;;5023054;28;20037;-73
2023/01/10 02:58:54;;;;;;;14.80;2.40;;;;;;;;;;5018617;28;20046;-73
2023/01/10 03:01:38;;;;;;;11.85;1.80;;;;;;;;;;5016432;28;20037;-73
2023/01/10 03:04:11;;;;;;;15.52;2.92;;;;;;;;;;5025368;28;20052;-73
2023/01/10 03:06:58;;;;;;;13.15;1.90;;;;;;;;;;5020604;28;20033;-73
2023/01/10 03:09:28;;;;;;;13.60;2.70;;;;;;;;;;5010030;28;20034;-73
2023/01/10 03:12:02;;;;;;;22.38;2.67;;;;;;;;;;5022735;28;20025;-73
2023/01/10 03:14:29;;;;;;;17.45;2.60;;;;;;;;;;5039417;28;20046;-73
2023/01/10 03:17:00;;;;;;;13.73;2.55;;;;;;;;;;5019095;28;20416;-73
2023/01/10 03:19:28;;;;;;;19.50;2.53;;;;;;;;;;5023323;28;20088;-74
2023/01/10 03:21:56;;;;;;;12.93;2.50;;;;;;;;;;5017392;28;20037;-73
2023/01/10 03:24:35;;;;;;;12.48;2.25;;;;;;;;;;5018718;28;20052;-73
2023/01/10 03:27:07;;;;;;;20.85;2.38;;;;;;;;;;5020678;28;20038;-73
2023/01/10 03:29:43;;;;;;;14.55;2.13;;;;;;;;;;5025420;28;20033;-73
2023/01/10 03:32:10;;;;;;;14.82;2.28;;;;;;;;;;5024866;28;20073;-73
2023/01/10 03:34:36;;;;;;;15.65;2.55;;;;;;;;;;5017200;28;20048;-73
2023/01/10 03:37:12;;;;;;;16.63;2.70;;;;;;;;;;5021121;28;20025;-72
2023/01/10 03:39:37;;;;;;;23.77;2.15;;;;;;;;;;5020493;28;20041;-73
2023/01/10 03:44:42;;;;;;;14.48;2.72;;;;;;;;;;5019254;28;20037;-73
2023/01/10 03:45:25;;;;;;;17.15;2.63;;;;;;;;;;5018945;28;20144;-73
2023/01/10 03:47:52;;;;;;;23.08;2.97;;;;;;;;;;5021289;28;20393;-74
2023/01/10 03:50:20;;;;;;;14.48;2.75;;;;;;;;;;5021387;28;20050;-72
2023/01/10 03:52:45;;;;;;;19.63;2.88;;;;;;;;;;5027389;28;20033;-74
2023/01/10 03:55:13;;;;;;;18.63;2.42;;;;;;;;;;5021958;28;20042;-72
2023/01/10 03:57:44;;;;;;;20.17;2.50;;;;;;;;;;5022589;28;20132;-73
2023/01/10 04:00:11;;;;;;;17.15;2.40;;;;;;;;;;5020064;28;20022;-74
2023/01/10 04:02:36;;;;;;;16.52;2.65;;;;;;;;;;5014811;28;20133;-73
2023/01/10 04:05:02;;;;;;;12.93;1.85;;;;;;;;;;5026718;28;20125;-73
2023/01/10 04:07:27;;;;;;;14.95;2.13;;;;;;;;;;5027615;28;20037;-73
2023/01/10 04:09:53;;;;;;;17.95;2.63;;;;;;;;;;5028182;28;20358;-73
2023/01/10 04:12:18;;;;;;;15.82;2.22;;;;;;;;;;5016634;28;20046;-72
2023/01/10 04:14:46;;;;;;;10.80;2.20;;;;;;;;;;5027552;28;20029;-73
2023/01/10 04:17:16;;;;;;;13.48;2.00;;;;;;;;;;5022612;28;20029;-74
2023/01/10 04:19:41;;;;;;;15.57;2.42;;;;;;;;;;5014114;28;20068;-72
2023/01/10 04:22:08;;;;;;;28.08;3.38;;;;;;;;;;5031438;28;20076;-73
2023/01/10 04:24:33;;;;;;;14.15;2.08;;;;;;;;;;5033909;28;20041;-72
2023/01/10 04:26:58;;;;;;;25.65;3.15;;;;;;;;;;5028350;28;20091;-73
2023/01/10 04:29:24;;;;;;;15.05;1.88;;;;;;;;;;5022485;28;20461;-72
2023/01/10 04:31:50;;;;;;;13.15;2.20;;;;;;;;;;5031955;28;20377;-72
2023/01/10 04:34:15;;;;;;;8.82;1.85;;;;;;;;;;5034318;28;20044;-73
2023/01/10 04:36:41;;;;;;;21.27;2.80;;;;;;;;;;5026294;28;20029;-73
2023/01/10 04:39:07;;;;;;;18.50;2.22;;;;;;;;;;5021081;28;20030;-72
2023/01/10 04:41:32;;;;;;;17.30;2.00;;;;;;;;;;5027220;28;20048;-73
2023/01/10 04:43:57;;;;;;;14.55;3.10;;;;;;;;;;5030842;28;20057;-72
2023/01/10 04:46:23;;;;;;;11.48;2.58;;;;;;;;;;5021590;28;20108;-72
2023/01/10 04:48:48;;;;;;;9.02;1.77;;;;;;;;;;5023853;28;20116;-72
2023/01/10 04:51:14;;;;;;;15.77;2.72;;;;;;;;;;5032217;28;20041;-72
2023/01/10 04:53:40;;;;;;;14.90;2.42;;;;;;;;;;5019504;28;20490;-72
2023/01/10 04:56:07;;;;;;;13.95;3.00;;;;;;;;;;5027076;28;20099;-73
2023/01/10 04:58:37;;;;;;;14.20;2.53;;;;;;;;;;5029152;28;20119;-72
2023/01/10 05:01:07;;;;;;;15.88;2.53;;;;;;;;;;5022402;28;20041;-72
2023/01/10 05:03:33;;;;;;;26.25;2.90;;;;;;;;;;5027641;28;20128;-72
2023/01/10 05:05:58;;;;;;;21.25;2.72;;;;;;;;;;5031942;28;20105;-72
2023/01/10 05:08:23;;;;;;;22.02;3.58;;;;;;;;;;5021781;28;20044;-72
2023/01/10 05:10:49;;;;;;;18.50;3.30;;;;;;;;;;5026991;28;20071;-72
2023/01/10 05:13:14;;;;;;;16.10;3.83;;;;;;;;;;5026114;28;20095;-72
2023/01/10 05:15:39;;;;;;;25.05;3.85;;;;;;;;;;5028513;28;20465;-72
2023/01/10 05:18:05;;;;;;;15.85;2.30;;;;;;;;;;5033186;28;20046;-72
2023/01/10 05:20:30;;;;;;;13.77;2.38;;;;;;;;;;5031400;28;20445;-72
2023/01/10 05:22:56;;;;;;;20.13;2.28;;;;;;;;;;5032342;28;20036;-72
2023/01/10 05:25:21;;;;;;;19.80;1.77;;;;;;;;;;5043106;28;20041;-72
2023/01/10 05:27:47;;;;;;;17.17;2.30;;;;;;;;;;5020246;28;20469;-72
2023/01/10 05:30:12;;;;;;;21.92;2.45;;;;;;;;;;5027229;28;20457;-72
2023/01/10 05:32:38;;;;;;;11.35;1.65;;;;;;;;;;5022977;28;20129;-72
2023/01/10 05:35:04;;;;;;;23.35;2.38;;;;;;;;;;5028524;28;20048;-72
2023/01/10 05:37:29;;;;;;;21.48;3.45;;;;;;;;;;5023732;28;20437;-72
2023/01/10 05:39:55;;;;;;;28.55;2.95;;;;;;;;;;5043846;28;20077;-72
2023/01/10 05:42:20;;;;;;;25.98;3.50;;;;;;;;;;5025049;28;20033;-72
2023/01/10 05:44:45;;;;;;;24.70;3.83;;;;;;;;;;5026357;28;20394;-73
2023/01/10 05:47:11;;;;;;;21.77;2.40;;;;;;;;;;5028330;28;20123;-72
2023/01/10 05:49:37;;;;;;;10.90;2.60;;;;;;;;;;5029431;28;20057;-73
2023/01/10 05:52:02;;;;;;;23.13;2.72;;;;;;;;;;5026478;28;20451;-72
2023/01/10 05:54:28;;;;;;;15.20;2.08;;;;;;;;;;5029848;28;20452;-72
2023/01/10 05:56:54;;;;;;;20.40;2.35;;;;;;;;;;5031132;28;20076;-72
2023/01/10 05:59:19;;;;;;;22.63;2.35;;;;;;;;;;5030647;28;20405;-72
2023/01/10 06:01:45;;;;;;;23.27;2.92;;;;;;;;;;5032247;28;20120;-73
2023/01/10 06:04:10;;;;;;;16.60;2.08;;;;;;;;;;5028270;28;20048;-72
2023/01/10 06:06:35;;;;;;;21.88;2.97;;;;;;;;;;5021300;28;20045;-73
2023/01/10 06:09:01;;;;;;;17.05;2.28;;;;;;;;;;5023569;28;20042;-72
2023/01/10 06:11:29;;;;;;;23.38;2.83;;;;;;;;;;5027896;28;20030;-72
2023/01/10 06:13:58;;;;;;;14.57;2.38;;;;;;;;;;5022738;28;20056;-72
2023/01/10 06:16:24;;;;;;;11.60;1.98;;;;;;;;;;5020289;28;20042;-72
2023/01/10 06:18:49;;;;;;;20.95;2.75;;;;;;;;;;5018146;28;20072;-72
2023/01/10 06:21:15;;;;;;;19.08;2.83;;;;;;;;;;5029613;28;20446;-72
2023/01/10 06:23:40;;;;;;;13.30;2.05;;;;;;;;;;5025049;28;20103;-72
2023/01/10 06:26:06;;;;;;;19.42;2.80;;;;;;;;;;5021187;28;20065;-72
2023/01/10 06:28:31;;;;;;;18.00;2.83;;;;;;;;;;5027727;28;20034;-73
2023/01/10 06:30:56;;;;;;;12.73;1.98;;;;;;;;;;5024061;28;20037;-72
2023/01/10 06:33:22;;;;;;;11.50;1.92;;;;;;;;;;5021489;28;20127;-73
2023/01/10 06:35:47;;;;;;;16.27;2.60;;;;;;;;;;5026176;28;20044;-73
2023/01/10 06:38:13;;;;;;;18.65;2.70;;;;;;;;;;5022494;28;20443;-73
2023/01/10 06:40:40;;;;;;;8.50;2.00;;;;;;;;;;5025858;28;20036;-72
2023/01/10 06:43:05;;;;;;;20.27;3.35;;;;;;;;;;5022382;28;20042;-72
2023/01/10 06:45:31;;;;;;;22.83;2.72;;;;;;;;;;5025196;28;20164;-72
2023/01/10 06:47:57;;;;;;;10.15;1.80;;;;;;;;;;5020707;28;20049;-72
2023/01/10 06:50:22;;;;;;;17.73;2.35;;;;;;;;;;5020942;28;20064;-72
2023/01/10 06:52:58;;;;;;;14.63;1.92;;;;;;;;;;5020280;28;20038;-72
2023/01/10 06:55:24;;;;;;;14.25;2.42;;;;;;;;;;5031047;28;20034;-73
2023/01/10 06:58:00;;;;;;;11.82;1.88;;;;;;;;;;5021095;28;20038;-74
2023/01/10 07:00:27;;;;;;;15.30;1.67;;;;;;;;;;5026132;28;20060;-73
2023/01/10 07:02:55;;;;;;;14.43;2.92;;;;;;;;;;5018913;28;20042;-72
2023/01/10 07:05:21;;;;;;;14.02;2.35;;;;;;;;;;5043228;28;20033;-72
2023/01/10 07:07:46;;;;;;;6.60;1.42;;;;;;;;;;5024612;28;20503;-73
2023/01/10 07:10:12;;;;;;;16.35;1.92;;;;;;;;;;5024976;28;20053;-72
2023/01/10 07:12:37;;;;;;;12.73;1.77;;;;;;;;;;5025155;28;20033;-72
2023/01/10 07:15:03;;;;;;;9.43;1.27;;;;;;;;;;5029215;28;20111;-73
2023/01/10 07:17:29;;;;;;;15.38;1.70;;;;;;;;;;5023822;28;20041;-73
2023/01/10 07:19:54;;;;;;;18.42;2.15;;;;;;;;;;5014558;28;20072;-72
2023/01/10 07:22:20;;;;;;;14.73;1.33;;;;;;;;;;5021270;28;20040;-73
2023/01/10 07:24:45;;;;;;;12.70;2.45;;;;;;;;;;5019371;28;20033;-74
2023/01/10 07:27:11;;;;;;;9.15;2.85;;;;;;;;;;5027559;28;20021;-74
2023/01/10 07:29:36;;;;;;;8.75;1.88;;;;;;;;;;5021312;28;20026;-74
2023/01/10 07:32:01;;;;;;;4.28;1.35;;;;;;;;;;5023091;28;20059;-72
2023/01/10 07:34:27;;;;;;;15.85;2.45;;;;;;;;;;5016379;28;20034;-72
2023/01/10 07:36:52;;;;;;;11.88;2.38;;;;;;;;;;5027678;28;20358;-72
2023/01/10 07:39:17;;;;;;;9.15;1.85;;;;;;;;;;5022969;28;20045;-73
2023/01/10 07:41:43;;;;;;;10.55;3.13;;;;;;;;;;5028517;28;20428;-72
2023/01/10 07:44:08;;;;;;;13.43;2.80;;;;;;;;;;5015339;28;20045;-73
2023/01/10 07:46:34;;;;;;;16.83;3.03;;;;;;;;;;5020792;28;20041;-74
2023/01/10 07:48:59;;;;;;;7.57;1.92;;;;;;;;;;5021329;28;20125;-73
2023/01/10 07:51:24;;;;;;;8.85;2.00;;;;;;;;;;5031635;28;20034;-73
2023/01/10 07:53:50;;;;;;;4.93;1.20;;;;;;;;;;5014964;28;20041;-74
2023/01/10 07:56:15;;;;;;;7.95;1.45;;;;;;;;;;5035209;28;20420;-74
2023/01/10 07:58:40;;;;;;;7.07;0.90;;;;;;;;;;5017819;28;20041;-73
2023/01/10 08:01:06;;;;;;;1.45;0.80;;;;;;;;;;5025944;28;20513;-73
2023/01/10 08:03:32;;;;;;;3.30;1.20;;;;;;;;;;5017563;28;20041;-75
2023/01/10 08:06:03;;;;;;;3.42;0.98;;;;;;;;;;5018973;28;20384;-74
2023/01/10 08:08:28;;;;;;;3.42;0.90;;;;;;;;;;5027820;28;20056;-75
2023/01/10 08:10:54;;;;;;;3.20;1.50;;;;;;;;;;5017604;28;20454;-74
2023/01/10 08:13:20;;;;;;;2.15;0.90;;;;;;;;;;5015875;28;20046;-75
2023/01/10 08:15:48;;;;;;;1.98;1.02;;;;;;;;;;5022555;28;20068;-74
2023/01/10 08:18:14;;;;;;;2.50;0.93;;;;;;;;;;5009622;28;20079;-75
2023/01/10 08:20:40;;;;;;;4.32;1.08;;;;;;;;;;5024137;28;20120;-74
2023/01/10 08:23:05;;;;;;;5.97;0.60;;;;;;;;;;5022429;28;20095;-75
2023/01/10 08:25:30;;;;;;;3.33;0.70;;;;;;;;;;5019958;28;20100;-75
2023/01/10 08:27:56;;;;;;;1.73;0.68;;;;;;;;;;5021371;28;20041;-74
2023/01/10 08:30:22;;;;;;;1.50;0.68;;;;;;;;;;5022480;28;20170;-76
2023/01/10 08:32:47;;;;;;;2.22;1.08;;;;;;;;;;5022624;28;20040;-76
2023/01/10 08:35:13;;;;;;;1.40;0.73;;;;;;;;;;5014103;28;20038;-74
2023/01/10 08:37:38;;;;;;;1.00;0.70;;;;;;;;;;5020407;28;20084;-74
2023/01/10 08:40:04;;;;;;;1.40;0.77;;;;;;;;;;5014395;28;20033;-74
2023/01/10 08:42:29;;;;;;;1.98;0.70;;;;;;;;;;5016533;28;20120;-75
2023/01/10 08:44:55;;;;;;;0.80;0.50;;;;;;;;;;5012587;28;20030;-74
2023/01/10 08:47:20;;;;;;;1.52;0.60;;;;;;;;;;5021657;28;20026;-74
2023/01/10 08:49:48;;;;;;;1.55;0.70;;;;;;;;;;5028351;28;20473;-74
2023/01/10 08:52:14;;;;;;;1.63;0.85;;;;;;;;;;5016829;28;20030;-75
2023/01/10 08:54:39;;;;;;;2.58;0.70;;;;;;;;;;5015046;28;20044;-74
2023/01/10 08:57:05;;;;;;;1.05;0.60;;;;;;;;;;5022220;28;20030;-75
2023/01/10 08:59:30;;;;;;;18.33;4.95;;;;;;;;;;5019776;28;20393;-75
2023/01/10 09:01:57;;;;;;;11.10;3.40;;;;;;;;;;5020616;28;20044;-74
2023/01/10 09:04:23;;;;;;;1.80;0.88;;;;;;;;;;5031673;28;20048;-74
2023/01/10 09:06:48;;;;;;;1.60;0.73;;;;;;;;;;5030916;28;20045;-75
2023/01/10 09:09:14;;;;;;;2.92;1.05;;;;;;;;;;5033601;28;20083;-76
2023/01/10 09:11:39;;;;;;;4.40;2.33;;;;;;;;;;5019826;28;20036;-75
2023/01/10 09:14:06;;;;;;;4.50;2.20;;;;;;;;;;5022137;28;20074;-75
2023/01/10 09:16:31;;;;;;;13.82;3.05;;;;;;;;;;5028577;28;20580;-77
2023/01/10 09:18:57;;;;;;;7.65;2.85;;;;;;;;;;5028546;28;20109;-75
2023/01/10 09:21:22;;;;;;;8.90;2.65;;;;;;;;;;5035104;28;20037;-75
2023/01/10 09:23:48;;;;;;;4.07;2.00;;;;;;;;;;5034315;28;20484;-75
2023/01/10 09:26:13;;;;;;;2.05;1.00;;;;;;;;;;5022303;28;20026;-75
2023/01/10 09:28:38;;;;;;;5.18;0.98;;;;;;;;;;5018955;28;20410;-75
2023/01/10 09:31:07;;;;;;;2.78;1.30;;;;;;;;;;5022184;28;20034;-77
2023/01/10 09:33:33;;;;;;;1.40;0.80;;;;;;;;;;5020670;28;20500;-75
2023/01/10 09:35:59;;;;;;;3.38;1.02;;;;;;;;;;5021762;28;20038;-75
2023/01/10 09:38:25;;;;;;;3.50;1.05;;;;;;;;;;5020704;28;20040;-77
2023/01/10 09:41:05;;;;;;;1.70;0.80;;;;;;;;;;5016558;28;20041;-75
2023/01/10 09:43:33;;;;;;;1.73;0.82;;;;;;;;;;5025715;28;20095;-74
2023/01/10 09:46:04;;;;;;;1.45;0.80;;;;;;;;;;5022284;28;20037;-75
2023/01/10 09:49:11;;;;;;;1.35;0.73;;;;;;;;;;5027419;28;20041;-75
2023/01/10 09:51:38;;;;;;;5.80;1.20;;;;;;;;;;5006105;28;20057;-75
2023/01/10 09:54:22;;;;;;;1.08;0.70;;;;;;;;;;5010789;28;20522;-75
2023/01/10 09:56:48;;;;;;;;;;;;;;;;;;5016473;28;20537;-75
2023/01/10 09:59:19;;;;;;;2.90;1.13;;;;;;;;;;5021665;28;19912;-75
2023/01/10 10:01:46;;;;;;;2.97;0.93;;;;;;;;;;5003967;28;20026;-75
2023/01/10 10:04:26;;;;;;;2.78;0.70;;;;;;;;;;5027171;28;20038;-77
2023/01/10 10:06:52;;;;;;;2.22;0.80;;;;;;;;;;4990400;28;20056;-76
2023/01/10 10:09:29;;;;;;;3.63;0.85;;;;;;;;;;5014684;28;20033;-75
2023/01/10 10:12:08;;;;;;;1.73;1.02;;;;;;;;;;5013700;28;20473;-75
2023/01/10 10:14:52;;;;;;;3.90;0.85;;;;;;;;;;5012646;28;20042;-75
2023/01/10 10:17:32;;;;;;;0.73;0.57;;;;;;;;;;5007904;28;20083;-75
2023/01/10 10:20:18;;;;;;;1.67;0.80;;;;;;;;;;5014130;28;20041;-75
2023/01/10 10:23:01;;;;;;;4.97;1.15;;;;;;;;;;5011078;28;20045;-75
2023/01/10 10:26:12;;;;;;;4.30;1.35;;;;;;;;;;5016104;28;20485;-75
2023/01/10 10:29:05;;;;;;;2.33;0.80;;;;;;;;;;5004292;28;20451;-76
2023/01/10 10:32:04;;;;;;;2.55;0.77;;;;;;;;;;5006053;28;20053;-77
2023/01/10 10:34:36;;;;;;;1.20;0.50;;;;;;;;;;5008591;28;20488;-76
2023/01/10 10:37:08;;;;;;;2.53;0.63;;;;;;;;;;5005855;28;20422;-78
2023/01/10 10:40:00;;;;;;;4.72;1.00;;;;;;;;;;5004646;28;20081;-76
2023/01/10 10:42:37;;;;;;;1.83;0.70;;;;;;;;;;5013590;28;20096;-76
2023/01/10 10:45:07;;;;;;;1.75;0.63;;;;;;;;;;4996938;28;20053;-76
2023/01/10 10:47:35;;;;;;;4.28;0.98;;;;;;;;;;5014357;28;20124;-76
2023/01/10 10:50:30;;;;;;;4.63;0.90;;;;;;;;;;5013732;28;20074;-75
2023/01/10 10:52:56;;;;;;;4.93;0.90;;;;;;;;;;5011753;28;20470;-76
2023/01/10 10:55:28;;;;;;;8.55;1.23;;;;;;;;;;5018361;28;20041;-75
2023/01/10 10:57:54;;;;;;;7.22;2.10;;;;;;;;;;5012196;28;20386;-76
2023/01/10 11:00:21;;;;;;;11.07;1.20;;;;;;;;;;5013407;28;20046;-75
2023/01/10 11:03:01;;;;;;;5.90;1.55;;;;;;;;;;5014023;28;20452;-75
2023/01/10 11:05:39;;;;;;;13.88;1.65;;;;;;;;;;5016618;28;20515;-79
2023/01/10 11:08:12;;;;;;;7.95;1.20;;;;;;;;;;5008502;28;20038;-76
2023/01/10 11:10:40;;;;;;;11.27;1.67;;;;;;;;;;5004296;28;20037;-75
2023/01/10 11:13:33;;;;;;;8.38;1.65;;;;;;;;;;5015399;28;20038;-75
2023/01/10 11:16:03;;;;;;;7.80;1.73;;;;;;;;;;5013271;28;20077;-76
2023/01/10 11:18:29;;;;;;;12.25;2.03;;;;;;;;;;5012912;28;20041;-77
2023/01/10 11:21:01;;;;;;;14.10;2.65;;;;;;;;;;5007303;28;20030;-76
2023/01/10 11:23:52;;;;;;;12.95;2.58;;;;;;;;;;5011054;28;20077;-77
2023/01/10 11:26:29;;;;;;;13.25;2.00;;;;;;;;;;5015871;28;20018;-75
2023/01/10 11:29:19;;;;;;;9.07;2.17;;;;;;;;;;5014361;28;20462;-75
2023/01/10 11:31:45;;;;;;;10.30;2.42;;;;;;;;;;5013473;28;20038;-75
2023/01/10 11:34:23;;;;;;;12.85;2.15;;;;;;;;;;5010470;28;20033;-76
2023/01/10 11:36:59;;;;;;;14.70;3.35;;;;;;;;;;5015096;28;20058;-76
2023/01/10 11:39:25;;;;;;;20.83;2.20;;;;;;;;;;5018249;28;20996;-75
2023/01/10 11:41:52;;;;;;;22.10;2.70;;;;;;;;;;5009735;28;20473;-75
2023/01/10 11:44:27;;;;;;;15.68;2.78;;;;;;;;;;5007906;28;20096;-76
2023/01/10 11:46:55;;;;;;;19.83;2.33;;;;;;;;;;5013637;28;20033;-76
2023/01/10 11:49:28;;;;;;;14.25;2.22;;;;;;;;;;5009884;28;20481;-75
2023/01/10 11:51:59;;;;;;;18.38;2.45;;;;;;;;;;5003747;28;20049;-76
2023/01/10 11:54:26;;;;;;;19.35;2.25;;;;;;;;;;5012431;28;20129;-75
2023/01/10 11:56:56;;;;;;;30.38;2.20;;;;;;;;;;5016073;28;20040;-75
2023/01/10 11:59:22;;;;;;;23.20;2.92;;;;;;;;;;5014957;28;20041;-76
2023/01/10 12:01:54;;;;;;;18.92;1.98;;;;;;;;;;5015679;28;20125;-75
2023/01/10 12:04:20;;;;;;;12.98;1.77;;;;;;;;;;5013060;28;20033;-75
2023/01/10 12:06:51;;;;;;;24.58;5.28;;;;;;;;;;5001270;28;20390;-75
2023/01/10 12:09:58;;;;;;;23.73;6.55;;;;;;;;;;5012213;28;20523;-75
2023/01/10 12:12:25;;;;;;;21.13;3.85;;;;;;;;;;5004695;28;20057;-75
2023/01/10 12:14:52;;;;;;;18.73;2.35;;;;;;;;;;5027323;28;20077;-75
2023/01/10 12:17:26;;;;;;;26.45;4.82;;;;;;;;;;5006211;28;20052;-76
2023/01/10 12:19:54;;;;;;;22.67;4.10;;;;;;;;;;5005923;28;20030;-75
2023/01/10 12:22:24;;;;;;;23.58;3.10;;;;;;;;;;5014683;28;20095;-75
2023/01/10 12:24:50;;;;;;;36.65;4.63;;;;;;;;;;5008132;28;20481;-77
2023/01/10 12:27:17;;;;;;;21.90;2.85;;;;;;;;;;5011477;28;20034;-75
2023/01/10 12:29:46;;;;;;;24.48;3.15;;;;;;;;;;5009562;28;20046;-76
2023/01/10 12:32:18;;;;;;;27.50;3.63;;;;;;;;;;5010659;28;20034;-76
2023/01/10 12:34:48;;;;;;;30.65;3.80;;;;;;;;;;5022835;28;20042;-76
2023/01/10 12:37:30;;;;;;;25.98;5.18;;;;;;;;;;5011687;28;20061;-77
2023/01/10 12:40:01;;;;;;;37.67;5.35;;;;;;;;;;5017774;28;20046;-76
2023/01/10 12:46:02;;;;;;;22.35;3.25;;;;;;;;;;5004755;28;20405;-75
2023/01/10 12:48:48;;;;;;;32.63;2.97;;;;;;;;;;5016233;28;20033;-76
2023/01/10 12:51:17;;;;;;;31.58;2.78;;;;;;;;;;5016283;28;20064;-76
2023/01/10 12:53:47;;;;;;;31.25;3.13;;;;;;;;;;5000209;28;20030;-75
2023/01/10 12:56:14;;;;;;;26.83;3.20;;;;;;;;;;5031126;28;20049;-75
2023/01/10 12:58:46;;;;;;;25.85;3.20;;;;;;;;;;4991856;28;20405;-75
2023/01/10 13:01:16;;;;;;;23.40;3.38;;;;;;;;;;5000262;28;20033;-77
2023/01/10 13:03:42;;;;;;;27.55;2.20;;;;;;;;;;5016549;28;20643;-77
2023/01/10 13:06:14;;;;;;;32.70;2.90;;;;;;;;;;5010869;28;20038;-75
2023/01/10 13:08:42;;;;;;;25.27;2.88;;;;;;;;;;5018312;28;20033;-75
2023/01/10 13:11:11;;;;;;;24.77;2.75;;;;;;;;;;5018071;28;20120;-77
2023/01/10 13:13:41;;;;;;;26.65;2.22;;;;;;;;;;5012402;28;20030;-76
2023/01/10 13:16:29;;;;;;;22.88;2.42;;;;;;;;;;5021572;28;20117;-76
2023/01/10 13:19:09;;;;;;;18.48;2.83;;;;;;;;;;5029873;28;20037;-76
2023/01/10 13:21:36;;;;;;;17.80;2.60;;;;;;;;;;5017713;28;20469;-76
2023/01/10 13:24:19;;;;;;;20.75;3.28;;;;;;;;;;5044321;28;20118;-76
2023/01/10 13:26:49;;;;;;;17.83;2.40;;;;;;;;;;5021290;28;20082;-77
2023/01/10 13:29:18;;;;;;;31.35;4.18;;;;;;;;;;5015635;28;20022;-76
2023/01/10 13:31:44;;;;;;;25.25;2.33;;;;;;;;;;5017408;28;20037;-77
2023/01/10 13:34:11;;;;;;;19.63;2.47;;;;;;;;;;5015047;28;20084;-75
2023/01/10 13:36:39;;;;;;;26.40;2.58;;;;;;;;;;5020756;28;20125;-75
2023/01/10 13:39:16;;;;;;;16.67;2.97;;;;;;;;;;5024890;28;20037;-75
2023/01/10 13:44:59;;;;;;;15.07;1.95;;;;;;;;;;5008530;28;20052;-75
2023/01/10 13:47:47;;;;;;;11.35;2.28;;;;;;;;;;5014120;28;20034;-76
2023/01/10 13:50:21;;;;;;;17.63;2.40;;;;;;;;;;5027816;28;20054;-75
2023/01/10 13:52:47;;;;;;;29.05;2.67;;;;;;;;;;5040115;28;20048;-76
2023/01/10 13:55:27;;;;;;;18.17;2.58;;;;;;;;;;5030055;28;20462;-75
2023/01/10 13:58:12;;;;;;;21.20;3.00;;;;;;;;;;5009714;28;20030;-76
2023/01/10 14:03:42;;;;;;;15.00;1.90;;;;;;;;;;5007627;28;20040;-76
2023/01/10 14:06:39;;;;;;;13.77;1.67;;;;;;;;;;5018334;28;20034;-76
2023/01/10 14:09:31;;;;;;;14.05;2.22;;;;;;;;;;5026202;28;20389;-79
2023/01/10 14:12:03;;;;;;;10.00;1.67;;;;;;;;;;5013625;28;20463;-76
2023/01/10 14:14:36;;;;;;;22.50;2.13;;;;;;;;;;5024020;28;20040;-76
2023/01/10 14:17:19;;;;;;;13.95;1.85;;;;;;;;;;5021346;28;20046;-75
2023/01/10 14:19:46;;;;;;;11.82;2.10;;;;;;;;;;5025941;28;20488;-76
2023/01/10 14:22:28;;;;;;;14.05;2.10;;;;;;;;;;5018587;28;20033;-77
2023/01/10 14:24:53;;;;;;;18.15;2.10;;;;;;;;;;5025932;28;20030;-75
2023/01/10 14:27:21;;;;;;;11.23;2.00;;;;;;;;;;5015125;28;20048;-77
2023/01/10 14:29:48;;;;;;;22.33;3.30;;;;;;;;;;5027501;28;20124;-75
2023/01/10 14:32:37;;;;;;;15.48;3.38;;;;;;;;;;5018621;28;20080;-76
2023/01/10 14:35:05;;;;;;;18.67;2.83;;;;;;;;;;5024657;28;20045;-76
2023/01/10 14:37:36;;;;;;;11.65;2.03;;;;;;;;;;5012125;28;20038;-75
2023/01/10 14:40:18;;;;;;;14.93;2.63;;;;;;;;;;5017014;28;20072;-75
2023/01/10 14:42:45;;;;;;;28.73;3.17;;;;;;;;;;5012712;28;20037;-75
2023/01/10 14:45:22;;;;;;;16.52;2.30;;;;;;;;;;5021652;28;20061;-76
2023/01/10 14:47:48;;;;;;;22.30;2.53;;;;;;;;;;5014487;28;20296;-75
2023/01/10 14:50:29;;;;;;;18.63;3.17;;;;;;;;;;5024767;28;20554;-76
2023/01/10 14:52:55;;;;;;;23.90;3.72;;;;;;;;;;5020536;28;20390;-76
2023/01/10 14:55:21;;;;;;;13.63;2.47;;;;;;;;;;5026771;28;20486;-76
2023/01/10 14:58:00;;;;;;;21.17;2.63;;;;;;;;;;5018310;28;20060;-75
2023/01/10 15:00:31;;;;;;;22.48;3.03;;;;;;;;;;5016880;28;20892;-76
2023/01/10 15:03:00;;;;;;;28.20;3.28;;;;;;;;;;5023219;28;20033;-76
2023/01/10 15:05:28;;;;;;;17.35;2.47;;;;;;;;;;5021071;28;20046;-76